Time;durP1;ratioP1;P1;durP2;ratioP2;P2;SDS_P1;SDS_P2;PMS_P1;PMS_P2;Temp;Humidity;BMP_temperature;BMP_pressure;BME280_temperature;BME280_humidity;BME280_pressure;Samples;Min_cycle;Max_cycle;Signal;HPM_P1;HPM_P2
2022/02/14 00:01:41;;;;;;;;;10.25;7.00;;;;;13.09;57.74;99944.53;5039324;28;45197;-81
2022/02/14 00:04:07;;;;;;;;;8.50;6.25;;;;;13.08;58.38;99942.84;5039573;28;45226;-81
2022/02/14 00:06:33;;;;;;;;;7.00;6.25;;;;;13.07;58.05;99942.94;5039065;28;46312;-81
2022/02/14 00:08:58;;;;;;;;;7.75;5.75;;;;;13.03;58.28;99939.63;5038286;28;45209;-81
2022/02/14 00:11:24;;;;;;;;;6.25;4.25;;;;;13.02;58.16;99940.56;5044084;28;45180;-81
2022/02/14 00:13:53;;;;;;;;;6.75;5.00;;;;;13.00;58.04;99926.59;5038883;28;45288;-82
2022/02/14 00:16:18;;;;;;;;;7.75;5.50;;;;;12.97;58.16;99930.25;5021048;28;46347;-81
2022/02/14 00:18:44;;;;;;;;;5.25;4.00;;;;;12.93;58.70;99919.06;5035825;28;45312;-81
2022/02/14 00:21:09;;;;;;;;;6.50;6.50;;;;;12.94;58.80;99919.88;5038686;28;45693;-81
2022/02/14 00:23:34;;;;;;;;;7.50;6.00;;;;;12.92;58.38;99919.97;5039116;28;45352;-81
2022/02/14 00:26:00;;;;;;;;;7.00;5.00;;;;;12.92;58.64;99917.34;5038668;28;46326;-81
2022/02/14 00:28:25;;;;;;;;;7.75;6.50;;;;;12.91;58.83;99918.25;5039006;28;45340;-82
2022/02/14 00:30:51;;;;;;;;;6.25;6.25;;;;;12.89;58.50;99911.41;5039178;28;45209;-82
2022/02/14 00:33:16;;;;;;;;;9.50;6.50;;;;;12.88;58.96;99909.69;5038824;28;45267;-83
2022/02/14 00:35:42;;;;;;;;;6.25;6.25;;;;;12.87;58.60;99905.34;5039032;28;46454;-83
2022/02/14 00:38:08;;;;;;;;;7.00;5.50;;;;;12.87;58.73;99910.59;5019891;28;45566;-83
2022/02/14 00:40:33;;;;;;;;;5.00;5.00;;;;;12.87;59.16;99907.97;5020567;28;45237;-83
2022/02/14 00:42:59;;;;;;;;;7.00;7.00;;;;;12.87;59.09;99898.28;5038693;28;45274;-83
2022/02/14 00:45:24;;;;;;;;;6.00;6.00;;;;;12.87;58.90;99900.91;5038852;28;45278;-83
2022/02/14 00:47:49;;;;;;;;;6.75;5.25;;;;;12.82;59.16;99893.28;5038683;28;45159;-79
2022/02/14 00:50:16;;;;;;;;;6.75;6.00;;;;;12.83;58.99;99896.75;5038769;28;45460;-80
2022/02/14 00:52:42;;;;;;;;;7.00;6.00;;;;;12.85;59.06;99891.38;5038038;28;45473;-80
2022/02/14 00:55:09;;;;;;;;;7.50;6.25;;;;;12.85;59.09;99888.75;5037964;28;45436;-80
2022/02/14 00:57:35;;;;;;;;;9.25;6.75;;;;;12.82;59.17;99889.78;5040023;28;45671;-80
2022/02/14 01:00:00;;;;;;;;;8.25;5.50;;;;;12.78;59.18;99881.19;5040465;28;45289;-80
2022/02/14 01:02:25;;;;;;;;;5.50;4.50;;;;;12.80;59.13;99881.09;5034401;28;45488;-80
2022/02/14 01:04:51;;;;;;;;;9.75;8.00;;;;;12.81;59.49;99882.81;5041784;28;45415;-80
2022/02/14 01:07:16;;;;;;;;;6.75;6.00;;;;;12.78;59.26;99870.66;5041882;28;45188;-81
2022/02/14 01:09:42;;;;;;;;;6.25;5.50;;;;;12.78;59.10;99875.06;5032839;28;45225;-81
2022/02/14 01:12:09;;;;;;;;;6.50;5.25;;;;;12.78;59.20;99873.28;5049852;28;45539;-81
2022/02/14 01:14:34;;;;;;;;;6.00;5.75;;;;;12.74;58.96;99861.19;5041198;28;45221;-81
2022/02/14 01:17:00;;;;;;;;;9.00;5.00;;;;;12.73;59.15;99866.56;5039517;28;45248;-83
2022/02/14 01:19:25;;;;;;;;;4.00;4.00;;;;;12.70;59.06;99857.03;5035637;28;45149;-81
2022/02/14 01:21:51;;;;;;;;;5.50;4.75;;;;;12.74;59.09;99863.81;5041482;28;45589;-81
2022/02/14 01:24:17;;;;;;;;;7.00;5.00;;;;;12.75;58.83;99856.78;5023864;28;46580;-82
2022/02/14 01:26:42;;;;;;;;;7.25;5.25;;;;;12.77;58.99;99862.81;5041384;28;45331;-81
2022/02/14 01:29:08;;;;;;;;;7.75;5.50;;;;;12.80;58.86;99871.41;5041777;28;45383;-82
2022/02/14 01:31:34;;;;;;;;;5.00;5.00;;;;;12.83;59.01;99859.84;5041766;28;45279;-83
2022/02/14 01:33:59;;;;;;;;;8.25;6.00;;;;;12.86;59.00;99861.47;5041578;28;45315;-83
2022/02/14 01:36:25;;;;;;;;;6.25;5.75;;;;;12.86;58.43;99864.09;5040696;28;45773;-84
2022/02/14 01:38:50;;;;;;;;;5.50;5.50;;;;;12.88;58.67;99854.31;5040641;28;45368;-84
2022/02/14 01:41:16;;;;;;;;;6.75;5.25;;;;;12.89;58.51;99851.56;5041294;28;45390;-81
2022/02/14 01:43:43;;;;;;;;;6.75;4.50;;;;;12.94;58.47;99853.94;5030449;28;45586;-82
2022/02/14 01:46:09;;;;;;;;;5.50;5.25;;;;;12.96;58.55;99845.97;5041427;28;45165;-83
2022/02/14 01:48:34;;;;;;;;;6.00;4.25;;;;;12.98;58.47;99846.72;5041126;28;45276;-83
2022/02/14 01:51:00;;;;;;;;;4.75;4.75;;;;;12.99;58.73;99851.06;5041366;28;45378;-83
2022/02/14 01:53:26;;;;;;;;;8.25;5.50;;;;;13.00;58.56;99847.47;5023440;28;46437;-83
2022/02/14 01:55:52;;;;;;;;;5.50;5.50;;;;;13.00;58.76;99831.66;5023158;28;45339;-82
2022/02/14 01:58:19;;;;;;;;;8.00;6.50;;;;;13.04;58.66;99841.94;5038177;28;45363;-82
2022/02/14 02:00:44;;;;;;;;;4.25;4.25;;;;;13.01;58.61;99831.53;5040842;28;45399;-81
2022/02/14 02:03:10;;;;;;;;;6.25;5.25;;;;;13.03;58.62;99821.78;5041075;28;45474;-82
2022/02/14 02:05:37;;;;;;;;;6.75;6.75;;;;;13.03;58.62;99832.34;5035407;28;45738;-82
2022/02/14 02:08:03;;;;;;;;;4.00;3.75;;;;;13.06;58.53;99828.66;5034967;28;45308;-82
2022/02/14 02:10:28;;;;;;;;;5.25;5.25;;;;;13.08;58.81;99828.56;5029625;28;45253;-81
2022/02/14 02:12:57;;;;;;;;;5.75;5.75;;;;;13.10;58.89;99821.41;5040264;28;45453;-82
2022/02/14 02:15:24;;;;;;;;;5.50;5.50;;;;;13.09;58.65;99822.38;5040446;28;45328;-82
2022/02/14 02:17:50;;;;;;;;;6.75;5.75;;;;;13.11;58.42;99815.19;5041160;28;45418;-82
2022/02/14 02:20:17;;;;;;;;;4.50;4.25;;;;;13.09;58.62;99815.28;5039877;28;45420;-82
2022/02/14 02:22:45;;;;;;;;;5.50;4.50;;;;;13.12;58.72;99808.97;5040954;28;45354;-83
2022/02/14 02:25:12;;;;;;;;;3.75;3.75;;;;;13.16;58.90;99831.63;5040290;28;45149;-82
2022/02/14 02:27:39;;;;;;;;;6.75;4.00;;;;;13.18;59.09;99821.81;5041056;28;45437;-83
2022/02/14 02:30:07;;;;;;;;;5.50;5.50;;;;;13.21;58.86;99823.44;5040637;28;45494;-83
2022/02/14 02:32:33;;;;;;;;;6.00;5.75;;;;;13.22;58.93;99823.31;5022701;28;46203;-83
2022/02/14 02:35:01;;;;;;;;;2.75;2.75;;;;;13.20;59.12;99809.38;5022237;28;45232;-83
2022/02/14 02:37:27;;;;;;;;;7.75;7.25;;;;;13.23;59.40;99818.91;5040432;28;45289;-84
2022/02/14 02:39:53;;;;;;;;;5.50;5.25;;;;;13.20;59.39;99812.03;5040095;28;45415;-83
2022/02/14 02:42:20;;;;;;;;;5.00;4.50;;;;;13.22;59.38;99804.00;5039959;28;45600;-82
2022/02/14 02:44:46;;;;;;;;;4.75;4.00;;;;;13.26;59.54;99805.53;5022259;28;45671;-83
2022/02/14 02:47:14;;;;;;;;;3.00;3.00;;;;;13.26;59.47;99798.44;5037326;28;45322;-85
2022/02/14 02:49:41;;;;;;;;;2.75;1.00;;;;;13.28;59.43;99791.28;5040264;28;45354;-85
2022/02/14 02:52:08;;;;;;;;;3.75;3.75;;;;;13.31;59.19;99797.34;5040463;28;45456;-85
2022/02/14 02:54:34;;;;;;;;;6.25;4.75;;;;;13.31;59.67;99794.69;5022022;28;45348;-81
2022/02/14 02:57:00;;;;;;;;;8.00;4.25;;;;;13.28;59.50;99793.91;5022147;28;45367;-81
2022/02/14 02:59:28;;;;;;;;;4.25;3.00;;;;;13.32;59.52;99812.22;5040250;28;45285;-84
2022/02/14 03:01:53;;;;;;;;;5.50;4.75;;;;;13.33;59.66;99801.59;5022117;28;47475;-84
2022/02/14 03:04:19;;;;;;;;;4.00;4.00;;;;;13.36;59.84;99808.44;5039516;28;45261;-85
2022/02/14 03:06:45;;;;;;;;;6.50;3.75;;;;;13.35;59.53;99801.50;5039260;28;45200;-84
2022/02/14 03:09:12;;;;;;;;;3.75;3.75;;;;;13.35;59.54;99798.84;5040190;28;45658;-85
2022/02/14 03:11:38;;;;;;;;;4.50;3.75;;;;;13.34;59.70;99790.06;5049130;28;46084;-85
2022/02/14 03:14:05;;;;;;;;;2.75;2.75;;;;;13.33;60.01;99808.66;5038311;28;45473;-84
2022/02/14 03:16:31;;;;;;;;;5.00;5.00;;;;;13.36;60.23;99817.22;5022276;28;45279;-83
2022/02/14 03:18:57;;;;;;;;;9.00;6.25;;;;;13.36;60.58;99800.53;5013307;28;46192;-83
2022/02/14 03:21:22;;;;;;;;;3.75;3.75;;;;;13.34;60.89;99799.78;5038718;28;45431;-80
2022/02/14 03:23:49;;;;;;;;;5.75;3.50;;;;;13.34;60.52;99792.72;5018532;28;45279;-83
2022/02/14 03:26:17;;;;;;;;;5.50;2.75;;;;;13.31;60.88;99790.25;5032804;28;45385;-84
2022/02/14 03:28:46;;;;;;;;;3.25;3.25;;;;;13.28;60.85;99796.56;5039609;28;45423;-85
2022/02/14 03:31:12;;;;;;;;;6.50;5.00;;;;;13.32;60.79;99799.88;5021892;28;48561;-82
2022/02/14 03:33:38;;;;;;;;;4.00;4.00;;;;;13.32;60.88;99804.31;5039390;28;45632;-82
2022/02/14 03:36:05;;;;;;;;;3.25;3.25;;;;;13.33;61.38;99806.88;5039579;28;45272;-82
2022/02/14 03:38:31;;;;;;;;;5.75;4.00;;;;;13.34;60.97;99820.88;5039523;28;45503;-83
2022/02/14 03:40:56;;;;;;;;;8.00;6.75;;;;;13.31;61.37;99808.72;5021399;28;47521;-81
2022/02/14 03:43:21;;;;;;;;;4.00;4.00;;;;;13.31;61.39;99813.19;5039507;28;45292;-81
2022/02/14 03:45:47;;;;;;;;;7.50;4.00;;;;;13.28;61.59;99825.59;5039594;28;45261;-82
2022/02/14 03:48:12;;;;;;;;;5.25;5.25;;;;;13.26;61.87;99840.66;5038516;28;45495;-82
2022/02/14 03:50:38;;;;;;;;;4.50;4.50;;;;;13.24;62.09;99839.91;5039499;28;46555;-82
2022/02/14 03:53:04;;;;;;;;;6.25;4.00;;;;;13.22;62.23;99841.78;5038545;28;45460;-82
2022/02/14 03:55:30;;;;;;;;;10.00;5.75;;;;;13.24;62.32;99850.47;5039025;28;45312;-82
2022/02/14 03:57:55;;;;;;;;;6.75;4.50;;;;;13.22;62.37;99857.63;5039169;28;45491;-83
2022/02/14 04:00:22;;;;;;;;;4.75;4.50;;;;;13.20;62.20;99856.88;5039550;28;46650;-86
2022/02/14 04:02:48;;;;;;;;;6.50;4.25;;;;;13.16;62.26;99863.28;5038358;28;45649;-87
2022/02/14 04:05:15;;;;;;;;;2.75;2.75;;;;;13.13;62.09;99864.31;5017610;28;45250;-85
2022/02/14 04:07:41;;;;;;;;;5.00;4.25;;;;;13.11;62.08;99865.31;5012577;28;47096;-81
2022/02/14 04:10:11;;;;;;;;;3.25;3.25;;;;;13.10;62.15;99866.25;5036933;28;45533;-83
2022/02/14 04:12:37;;;;;;;;;7.00;2.75;;;;;13.05;63.14;99919.28;5021285;28;45811;-85
2022/02/14 04:15:05;;;;;;;;;1.00;0.50;;;;;13.04;62.02;99928.13;5021029;28;45248;-86
2022/02/14 04:17:30;;;;;;;;;0.25;0.25;;;;;12.92;61.39;99927.03;5039324;28;45511;-85
2022/02/14 04:19:56;;;;;;;;;0.50;0.00;;;;;12.82;60.45;99935.47;5038987;28;45486;-86
2022/02/14 04:22:21;;;;;;;;;0.00;0.00;;;;;12.67;60.66;99921.34;5021254;28;45308;-86
2022/02/14 04:24:46;;;;;;;;;0.50;0.00;;;;;12.57;60.67;99928.03;5018579;28;45421;-85
2022/02/14 04:27:13;;;;;;;;;0.00;0.00;;;;;12.50;59.91;99943.34;5021183;28;46052;-85
2022/02/14 04:29:38;;;;;;;;;0.00;0.00;;;;;12.38;60.15;99947.50;5021056;28;47207;-84
2022/02/14 04:32:04;;;;;;;;;0.00;0.00;;;;;12.29;60.35;99937.44;5039576;28;45405;-83
2022/02/14 04:34:29;;;;;;;;;0.00;0.00;;;;;12.24;60.40;99951.72;5042482;28;45501;-83
2022/02/14 04:36:55;;;;;;;;;0.00;0.00;;;;;12.19;60.37;99959.03;5042361;28;45364;-82
2022/02/14 04:39:20;;;;;;;;;0.00;0.00;;;;;12.14;60.23;99967.16;5042496;28;45427;-81
2022/02/14 04:41:46;;;;;;;;;0.00;0.00;;;;;12.09;60.21;99969.16;5042309;28;45455;-82
2022/02/14 04:44:12;;;;;;;;;0.00;0.00;;;;;12.04;60.38;99969.41;5034003;28;45447;-83
2022/02/14 04:46:38;;;;;;;;;0.75;0.00;;;;;12.02;60.29;99973.91;5034759;28;45664;-85
2022/02/14 04:49:05;;;;;;;;;0.00;0.00;;;;;11.98;60.14;99977.59;5023017;28;46349;-85
2022/02/14 04:51:31;;;;;;;;;0.00;0.00;;;;;11.95;60.04;99983.00;5041992;28;45379;-84
2022/02/14 04:53:56;;;;;;;;;0.00;0.00;;;;;11.95;60.32;99990.09;5042518;28;45467;-84
2022/02/14 04:56:22;;;;;;;;;0.00;0.00;;;;;11.91;60.09;100000.75;5023967;28;46137;-82
2022/02/14 04:58:48;;;;;;;;;0.50;0.00;;;;;11.88;60.06;99993.00;5041821;28;45330;-83
2022/02/14 05:01:14;;;;;;;;;0.00;0.00;;;;;11.86;60.41;100010.66;5042371;28;45396;-87
2022/02/14 05:03:39;;;;;;;;;0.00;0.00;;;;;11.85;60.50;100014.25;5042190;28;45295;-85
2022/02/14 05:06:05;;;;;;;;;0.25;0.00;;;;;11.87;59.97;100029.97;5041887;28;45663;-84
2022/02/14 05:08:31;;;;;;;;;0.00;0.00;;;;;11.81;59.99;100031.97;5039433;28;46533;-84
2022/02/14 05:10:56;;;;;;;;;0.00;0.00;;;;;11.75;60.47;100024.38;5046837;28;45242;-84
2022/02/14 05:13:22;;;;;;;;;0.00;0.00;;;;;11.77;60.16;100045.38;5039921;28;45249;-87
2022/02/14 05:15:47;;;;;;;;;0.00;0.00;;;;;11.68;60.40;100039.63;5033818;28;45994;-85
2022/02/14 05:18:13;;;;;;;;;0.00;0.00;;;;;11.66;60.22;100048.50;5021230;28;48223;-82
2022/02/14 05:20:38;;;;;;;;;0.00;0.00;;;;;11.62;60.33;100055.72;5023864;28;45306;-82
2022/02/14 05:23:04;;;;;;;;;0.00;0.00;;;;;11.56;60.82;100045.47;5041934;28;45228;-82
2022/02/14 05:25:29;;;;;;;;;0.00;0.00;;;;;11.53;60.78;100057.00;5041802;28;45252;-83
2022/02/14 05:27:55;;;;;;;;;0.75;0.00;;;;;11.54;60.41;100058.72;5041320;28;45472;-83
2022/02/14 05:30:20;;;;;;;;;0.00;0.00;;;;;11.49;60.74;100044.91;5041126;28;45218;-84
2022/02/14 05:32:46;;;;;;;;;0.00;0.00;;;;;11.50;60.69;100070.31;5041750;28;45506;-83
2022/02/14 05:35:12;;;;;;;;;0.00;0.00;;;;;11.44;60.67;100067.97;5041542;28;45732;-83
2022/02/14 05:37:37;;;;;;;;;0.00;0.00;;;;;11.44;61.28;100068.81;5023257;28;47242;-83
2022/02/14 05:40:03;;;;;;;;;0.00;0.00;;;;;11.40;61.18;100084.84;5023411;28;45398;-82
2022/02/14 05:42:28;;;;;;;;;0.00;0.00;;;;;11.33;61.01;100081.66;5021987;28;45402;-81
2022/02/14 05:44:54;;;;;;;;;1.25;0.00;;;;;11.31;61.10;100088.75;5036629;28;45580;-82
2022/02/14 05:47:19;;;;;;;;;0.00;0.00;;;;;11.29;60.89;100091.44;5041090;28;45530;-84
2022/02/14 05:49:45;;;;;;;;;0.00;0.00;;;;;11.30;61.43;100097.56;5041282;28;45340;-83
2022/02/14 05:52:10;;;;;;;;;0.00;0.00;;;;;11.29;61.17;100104.59;5018564;28;45356;-83
2022/02/14 05:54:36;;;;;;;;;2.00;0.00;;;;;11.28;61.04;100109.94;5023315;28;45581;-84
2022/02/14 05:57:02;;;;;;;;;0.00;0.00;;;;;11.28;60.92;100113.44;5039928;28;45445;-84
2022/02/14 05:59:28;;;;;;;;;0.00;0.00;;;;;11.22;61.01;100113.69;5034627;28;45308;-83
2022/02/14 06:01:54;;;;;;;;;0.00;0.00;;;;;11.20;61.66;100126.06;5039575;28;45289;-85
2022/02/14 06:04:19;;;;;;;;;1.75;0.00;;;;;11.16;61.44;100117.44;5041355;28;45386;-85
2022/02/14 06:06:45;;;;;;;;;0.00;0.00;;;;;11.14;61.08;100122.78;5040563;28;45324;-85
2022/02/14 06:09:12;;;;;;;;;0.00;0.00;;;;;11.10;61.39;100126.50;5040860;28;45269;-85
2022/02/14 06:11:38;;;;;;;;;1.00;0.00;;;;;11.10;61.22;100126.50;5052871;28;45398;-88
2022/02/14 06:14:03;;;;;;;;;0.75;0.75;;;;;11.08;61.36;100125.72;5031625;28;45359;-87
2022/02/14 06:16:28;;;;;;;;;0.00;0.00;;;;;11.06;61.45;100147.75;5040812;28;45454;-85
2022/02/14 06:18:54;;;;;;;;;0.00;0.00;;;;;11.05;61.44;100148.66;5040000;28;45383;-83
2022/02/14 06:21:19;;;;;;;;;0.00;0.00;;;;;11.02;61.12;100153.13;5033837;28;45298;-86
2022/02/14 06:23:45;;;;;;;;;0.00;0.00;;;;;11.05;61.41;100167.06;5037646;28;45540;-82
2022/02/14 06:26:11;;;;;;;;;0.00;0.00;;;;;11.01;61.29;100167.19;5031583;28;46173;-86
2022/02/14 06:28:40;;;;;;;;;1.00;1.00;;;;;11.01;61.52;100182.97;5022699;28;45309;-85
2022/02/14 06:31:07;;;;;;;;;0.50;0.00;;;;;10.97;61.02;100181.41;5023113;28;45344;-85
2022/02/14 06:33:32;;;;;;;;;0.25;0.00;;;;;10.95;61.40;100196.41;5036169;28;45514;-86
2022/02/14 06:35:58;;;;;;;;;1.00;0.00;;;;;10.93;61.55;100192.13;5039305;28;46477;-86
2022/02/14 06:38:23;;;;;;;;;0.00;0.00;;;;;10.90;61.25;100201.00;5040657;28;45353;-86
2022/02/14 06:40:48;;;;;;;;;1.00;1.00;;;;;10.90;61.77;100207.13;5022755;28;45411;-85
2022/02/14 06:43:14;;;;;;;;;1.75;0.00;;;;;10.89;61.29;100209.81;5033833;28;45284;-85
2022/02/14 06:45:39;;;;;;;;;2.00;0.00;;;;;10.88;61.49;100213.34;5029401;28;48214;-84
2022/02/14 06:48:05;;;;;;;;;0.25;0.25;;;;;10.85;61.34;100211.72;5040236;28;45311;-84
2022/02/14 06:50:30;;;;;;;;;0.75;0.75;;;;;10.84;61.30;100209.16;5040694;28;45348;-84
2022/02/14 06:52:56;;;;;;;;;1.50;0.75;;;;;10.82;61.58;100209.22;5040297;28;45419;-84
2022/02/14 06:55:21;;;;;;;;;2.00;0.00;;;;;10.83;61.78;100213.56;5040129;28;45250;-84
2022/02/14 06:57:47;;;;;;;;;0.00;0.00;;;;;10.83;61.47;100221.44;5040131;28;45218;-84
2022/02/14 07:00:14;;;;;;;;;0.00;0.00;;;;;10.79;61.55;100220.72;5022449;28;45308;-84
2022/02/14 07:02:41;;;;;;;;;1.75;1.00;;;;;10.77;61.61;100222.56;5026415;28;45274;-83
2022/02/14 07:05:08;;;;;;;;;1.50;1.00;;;;;10.73;61.63;100222.75;5032837;28;45639;-84
2022/02/14 07:07:34;;;;;;;;;1.00;0.00;;;;;10.70;61.86;100221.09;5022375;28;45654;-84
2022/02/14 07:09:59;;;;;;;;;0.75;0.75;;;;;10.72;61.64;100235.03;5022218;28;45395;-84
2022/02/14 07:12:25;;;;;;;;;1.00;1.00;;;;;10.67;61.71;100235.22;5041176;28;45614;-83
2022/02/14 07:14:50;;;;;;;;;2.00;2.00;;;;;10.64;61.69;100245.03;5038935;28;45390;-83
2022/02/14 07:17:16;;;;;;;;;0.00;0.00;;;;;10.62;61.80;100249.50;5035747;28;45345;-83
2022/02/14 07:19:41;;;;;;;;;2.75;1.50;;;;;10.62;62.18;100252.13;5040306;28;45209;-82
2022/02/14 07:22:06;;;;;;;;;3.00;1.00;;;;;10.59;61.93;100247.84;5036254;28;45577;-83
2022/02/14 07:24:33;;;;;;;;;2.50;2.50;;;;;10.60;62.00;100259.19;5026825;28;46169;-84
2022/02/14 07:26:58;;;;;;;;;0.00;0.00;;;;;10.55;61.85;100257.63;5035303;28;45292;-84
2022/02/14 07:29:24;;;;;;;;;0.00;0.00;;;;;10.55;61.67;100272.53;5021830;28;45279;-85
2022/02/14 07:31:49;;;;;;;;;0.25;0.25;;;;;10.56;61.82;100272.47;5033935;28;45502;-84
2022/02/14 07:34:14;;;;;;;;;2.25;1.00;;;;;10.58;61.73;100275.91;5039255;28;46250;-84
2022/02/14 07:36:40;;;;;;;;;1.00;1.00;;;;;10.56;61.37;100284.75;5039398;28;45434;-84
2022/02/14 07:39:05;;;;;;;;;3.00;1.00;;;;;10.54;62.01;100287.44;5040151;28;45126;-84
2022/02/14 07:41:32;;;;;;;;;0.00;0.00;;;;;10.56;61.75;100288.25;5025136;28;47236;-84
2022/02/14 07:43:58;;;;;;;;;4.00;1.25;;;;;10.58;61.73;100293.44;5039279;28;45634;-84
2022/02/14 07:46:23;;;;;;;;;1.75;1.00;;;;;10.57;61.88;100278.56;5019983;28;45405;-85
2022/02/14 07:48:49;;;;;;;;;2.00;1.00;;;;;10.55;61.76;100276.00;5021324;28;45479;-84
2022/02/14 07:51:16;;;;;;;;;1.25;1.00;;;;;10.59;61.89;100292.53;5039089;28;45520;-85
2022/02/14 07:53:42;;;;;;;;;1.00;1.00;;;;;10.58;61.81;100296.91;5023896;28;47420;-84
2022/02/14 07:56:10;;;;;;;;;1.50;1.00;;;;;10.57;61.92;100303.06;5039345;28;45207;-85
2022/02/14 07:58:35;;;;;;;;;1.50;1.00;;;;;10.57;61.76;100305.72;5039370;28;45480;-85
2022/02/14 08:01:00;;;;;;;;;1.25;1.25;;;;;10.54;61.87;100311.06;5039470;28;45491;-85
2022/02/14 08:03:26;;;;;;;;;3.00;2.00;;;;;10.55;62.11;100311.94;5038603;28;45533;-85
2022/02/14 08:05:51;;;;;;;;;4.00;1.00;;;;;10.56;61.67;100325.03;5039124;28;45653;-85
2022/02/14 08:08:16;;;;;;;;;1.00;1.00;;;;;10.56;61.87;100325.03;5039511;28;45388;-86
2022/02/14 08:10:42;;;;;;;;;4.25;2.25;;;;;10.58;61.48;100323.19;5039910;28;45595;-85
2022/02/14 08:13:07;;;;;;;;;4.00;2.00;;;;;10.55;61.84;100322.44;5049910;28;45417;-85
2022/02/14 08:15:32;;;;;;;;;1.00;1.00;;;;;10.56;61.51;100329.44;5042542;28;45356;-85
2022/02/14 08:18:02;;;;;;;;;3.50;2.25;;;;;10.56;61.77;100330.28;5042442;28;45532;-85
2022/02/14 08:20:27;;;;;;;;;3.00;2.00;;;;;10.57;61.72;100336.38;5024101;28;47204;-85
2022/02/14 08:22:53;;;;;;;;;1.50;1.00;;;;;10.58;61.91;100348.63;5024623;28;47999;-85
2022/02/14 08:25:18;;;;;;;;;3.75;2.00;;;;;10.58;61.56;100338.97;5042658;28;45174;-86
2022/02/14 08:27:44;;;;;;;;;2.00;1.00;;;;;10.59;61.83;100358.22;5024629;28;45262;-85
2022/02/14 08:30:09;;;;;;;;;1.00;1.00;;;;;10.58;62.04;100354.72;5042212;28;45232;-85
2022/02/14 08:32:35;;;;;;;;;8.00;3.25;;;;;10.61;61.82;100359.00;5042365;28;47776;-85
2022/02/14 08:35:00;;;;;;;;;1.75;1.75;;;;;10.63;62.11;100356.31;5024793;28;45267;-85
2022/02/14 08:37:26;;;;;;;;;2.25;2.25;;;;;10.65;61.95;100365.00;5034132;28;45379;-85
2022/02/14 08:39:51;;;;;;;;;3.75;1.75;;;;;10.67;62.26;100358.75;5022695;28;46918;-91
2022/02/14 08:42:17;;;;;;;;;1.50;1.50;;;;;10.70;62.17;100360.41;5024400;28;46885;-90
2022/02/14 08:44:42;;;;;;;;;1.00;1.00;;;;;10.73;62.02;100352.41;5038664;28;45398;-90
2022/02/14 08:47:08;;;;;;;;;2.00;2.00;;;;;10.82;61.94;100360.84;5022910;28;45488;-92
2022/02/14 08:49:35;;;;;;;;;1.75;1.75;;;;;10.91;62.22;100356.06;5040844;28;45434;-89
2022/02/14 08:52:02;;;;;;;;;1.50;1.50;;;;;10.99;61.85;100347.00;5037239;28;45582;-89
2022/02/14 08:54:27;;;;;;;;;2.25;2.00;;;;;11.10;61.90;100349.19;5023721;28;45289;-90
2022/02/14 08:56:53;;;;;;;;;5.25;2.00;;;;;11.17;61.85;100344.53;5042364;28;45348;-89
2022/02/14 08:59:19;;;;;;;;;6.50;2.75;;;;;11.26;61.53;100352.03;5024628;28;45452;-90
2022/02/14 09:01:48;;;;;;;;;5.75;2.25;;;;;11.33;61.39;100347.38;5041230;28;46599;-90
2022/02/14 09:04:14;;;;;;;;;3.75;2.75;;;;;11.38;61.38;100342.78;5042060;28;45634;-89
2022/02/14 09:06:39;;;;;;;;;2.00;1.75;;;;;11.43;61.28;100355.75;5042347;28;45328;-90
2022/02/14 09:09:04;;;;;;;;;3.00;2.00;;;;;11.48;61.31;100351.97;5041431;28;45260;-90
2022/02/14 09:11:30;;;;;;;;;1.75;1.75;;;;;11.54;61.02;100348.22;5023354;28;47165;-91
2022/02/14 09:13:55;;;;;;;;;2.00;1.00;;;;;11.64;61.26;100350.44;5023841;28;46486;-91
2022/02/14 09:16:21;;;;;;;;;4.00;3.00;;;;;11.70;60.70;100348.41;5042440;28;45316;-92
2022/02/14 09:18:46;;;;;;;;;2.75;2.00;;;;;11.72;60.66;100350.97;5022753;28;47272;-86
2022/02/14 09:21:11;;;;;;;;;5.75;2.00;;;;;11.77;60.67;100349.00;5035521;28;45323;-87
2022/02/14 09:23:37;;;;;;;;;5.25;3.00;;;;;11.82;60.68;100349.66;5041765;28;45258;-87
2022/02/14 09:26:02;;;;;;;;;2.00;1.00;;;;;11.91;60.61;100361.53;5041111;28;45370;-88
2022/02/14 09:28:28;;;;;;;;;5.00;2.00;;;;;11.93;60.27;100354.44;5023319;28;45822;-87
2022/02/14 09:30:54;;;;;;;;;6.25;2.50;;;;;11.96;60.35;100355.22;5041238;28;46126;-87
2022/02/14 09:33:19;;;;;;;;;3.00;1.50;;;;;12.00;60.13;100349.72;5041651;28;45229;-87
2022/02/14 09:35:47;;;;;;;;;2.25;1.50;;;;;12.03;59.98;100359.28;5041291;28;45218;-87
2022/02/14 09:38:13;;;;;;;;;2.00;1.75;;;;;12.10;60.46;100359.88;5041132;28;45516;-87
2022/02/14 09:40:38;;;;;;;;;1.50;1.50;;;;;12.12;59.83;100358.03;5040460;28;46292;-87
2022/02/14 09:43:04;;;;;;;;;2.50;1.00;;;;;12.19;60.14;100369.16;5041557;28;45424;-87
2022/02/14 09:45:31;;;;;;;;;1.75;1.75;;;;;12.18;59.39;100372.69;5039827;28;45296;-87
2022/02/14 09:48:04;;;;;;;;;2.75;2.50;;;;;12.19;59.82;100375.28;5041654;28;45371;-90
2022/02/14 09:50:33;;;;;;;;;3.25;3.00;;;;;12.22;59.35;100379.56;5022155;28;47398;-90
2022/02/14 09:53:00;;;;;;;;;2.50;1.00;;;;;12.29;59.58;100381.00;5041265;28;45220;-91
2022/02/14 09:55:26;;;;;;;;;3.50;2.00;;;;;12.32;58.76;100380.00;5022582;28;45408;-90
2022/02/14 09:57:52;;;;;;;;;4.00;1.00;;;;;12.35;58.84;100387.75;5023180;28;47403;-91
2022/02/14 10:00:17;;;;;;;;;2.25;1.75;;;;;12.36;59.44;100385.06;5023247;28;48278;-90
2022/02/14 10:02:43;;;;;;;;;1.75;1.75;;;;;12.43;59.14;100387.38;5031436;28;45466;-90
2022/02/14 10:05:18;;;;;;;;;6.00;2.00;;;;;12.52;58.73;100388.75;5033357;28;45335;-90
2022/02/14 10:07:46;;;;;;;;;2.00;2.00;;;;;12.56;58.48;100390.31;5041135;28;45294;-90
2022/02/14 10:10:22;;;;;;;;;3.00;0.50;;;;;12.61;58.18;100404.13;5040711;28;45437;-90
2022/02/14 10:12:52;;;;;;;;;2.50;1.00;;;;;12.65;58.14;100403.06;5041053;28;45666;-90
2022/02/14 10:15:18;;;;;;;;;1.75;1.50;;;;;12.64;58.08;100396.09;5019170;28;45342;-89
2022/02/14 10:17:47;;;;;;;;;3.75;1.25;;;;;12.68;58.43;100402.91;5040496;28;45455;-90
2022/02/14 10:20:17;;;;;;;;;2.75;2.75;;;;;12.74;57.45;100407.03;5040650;28;45334;-90
2022/02/14 10:23:03;;;;;;;;;2.25;1.50;;;;;12.79;58.08;100394.47;5022936;28;46020;-91
2022/02/14 10:25:34;;;;;;;;;2.50;1.50;;;;;12.83;57.30;100417.16;5040856;28;45308;-90
2022/02/14 10:28:21;;;;;;;;;3.25;1.25;;;;;12.90;57.56;100412.44;5039257;28;45269;-90
2022/02/14 10:31:01;;;;;;;;;2.50;2.00;;;;;12.96;56.47;100418.34;5022283;28;47215;-90
2022/02/14 10:33:56;;;;;;;;;4.25;2.25;;;;;12.98;54.98;100414.72;5038095;28;45475;-86
2022/02/14 10:36:39;;;;;;;;;1.50;1.50;;;;;12.92;56.30;100421.13;5039655;28;45423;-84
2022/02/14 10:39:23;;;;;;;;;2.00;1.75;;;;;12.97;56.47;100425.31;5040115;28;45515;-84
2022/02/14 10:42:00;;;;;;;;;2.50;2.50;;;;;13.00;56.49;100418.13;5039660;28;46573;-84
2022/02/14 10:47:21;;;;;;;;;6.00;2.50;;;;;12.99;55.36;100426.97;5038593;28;45375;-84
2022/02/14 10:49:57;;;;;;;;;1.75;1.75;;;;;12.99;56.01;100426.13;5039196;28;45432;-84
2022/02/14 10:52:23;;;;;;;;;1.75;1.25;;;;;12.99;55.36;100429.59;5031140;28;45656;-84
2022/02/14 10:54:49;;;;;;;;;2.50;2.00;;;;;12.94;55.65;100428.97;5039928;28;45231;-84
2022/02/14 10:57:26;;;;;;;;;3.50;0.50;;;;;12.92;54.93;100415.00;5038958;28;45360;-84
2022/02/14 11:00:06;;;;;;;;;1.75;1.25;;;;;12.87;56.19;100417.84;5040024;28;45612;-84
2022/02/14 11:02:32;;;;;;;;;2.00;1.00;;;;;12.79;55.16;100407.66;5039986;28;46587;-84
2022/02/14 11:04:58;;;;;;;;;1.50;1.00;;;;;12.77;55.30;100404.25;5040110;28;45170;-84
2022/02/14 11:07:28;;;;;;;;;1.00;0.50;;;;;12.76;55.80;100402.56;5022233;28;45405;-85
2022/02/14 11:09:56;;;;;;;;;0.50;0.50;;;;;12.81;55.16;100403.19;5040008;28;45323;-85
2022/02/14 11:12:23;;;;;;;;;2.00;1.00;;;;;12.85;55.29;100400.38;5052181;28;46407;-84
2022/02/14 11:14:54;;;;;;;;;0.25;0.25;;;;;12.87;54.91;100396.75;5040015;28;45537;-84
2022/02/14 11:17:24;;;;;;;;;1.50;0.75;;;;;12.91;54.67;100402.75;5040209;28;45388;-84
2022/02/14 11:19:53;;;;;;;;;3.00;1.00;;;;;12.93;54.15;100404.38;5025047;28;47093;-84
2022/02/14 11:22:19;;;;;;;;;1.00;1.00;;;;;12.91;54.43;100392.19;5023722;28;45454;-84
2022/02/14 11:24:50;;;;;;;;;1.50;0.75;;;;;12.91;54.98;100385.13;5021996;28;45226;-84
2022/02/14 11:27:20;;;;;;;;;4.00;0.50;;;;;12.93;55.26;100385.91;5040158;28;45487;-85
2022/02/14 11:29:51;;;;;;;;;1.50;0.50;;;;;12.99;55.21;100390.03;5039961;28;45404;-84